• Join FlightAware (Why Join?)
  • Login
  • US Flag 
01:49AM EDT


 

Airport Tracker/Info


-or-


 

Live Flight TrackerFlight Track Log ✈ UPS1121 ✈ 26-Jun-2013 ✈ KBDL - KPHL

Flight Track Log - Related Links

Times and Time Zones

All times are in EDT time to prevent confusion due to time zone crossing. See the UPS1121 flight status page for this flight to view local times or setup timezone preferences in your user account.

Time Position Orientation Groundspeed Altitude Reporting Facility
EDT Latitude Longitude Course Direction KTS MPH feet Rate Location/Type
09:56PM 41.9208 -72.7164 218° Southwest 158 182 1,900  Level Boston Center
09:56PM 41.8914 -72.7469 218° Southwest 179 206 2,800 1,980 Climbing Boston Center
09:57PM 41.8414 -72.8022 219° Southwest 214 246 5,400 3,000 Climbing Boston Center
09:58PM 41.7767 -72.8242 194° South 271 312 8,800 2,280 Climbing Boston Center
09:59PM 41.7289 -72.7406 127° Southeast 253 291 10,000 1,320 Climbing Boston Center
10:01PM 41.7522 -72.5931 78° East 292 336 11,800 2,580 Climbing Boston Center
10:02PM 41.8064 -72.5125 48° Northeast 318 366 15,800 3,000 Climbing Boston Center
10:03PM 41.8961 -72.5433 346° North 264 304 17,800 1,740 Climbing Boston Center
10:09PM 42.2800 -73.1670 346° North 411 473 28,000 1,500 Climbing FlightAware
10:09PM 42.2740 -73.2670 265° West 408 470 28,000  Level FlightAware
10:10PM 42.2690 -73.3450 265° West 408 470 28,000  Level FlightAware
10:11PM 42.2590 -73.5610 266° West 406 467 28,000  Level FlightAware
10:12PM 42.2530 -73.6720 266° West 408 470 28,000  Level FlightAware
10:12PM 42.2483 -73.7556 266° West 409 471 28,000  Level FlightAware ADS-B
10:13PM 42.2427 -73.8525 266° West 410 472 28,000  Level FlightAware ADS-B
10:14PM 42.2350 -73.9790 265° West 411 473 28,000 -540 Level FlightAware
10:14PM 42.2303 -74.0663 266° West 408 470 27,300 -780 Descending FlightAware ADS-B
10:16PM 42.2130 -74.3550 265° West 26,000 -600 Descending FlightAware
10:17PM 42.2101 -74.4136 266° West 399 459 26,000  Level FlightAware ADS-B
10:18PM 42.2000 -74.5830 265° West 401 461 26,000  Level FlightAware
10:19PM 42.1930 -74.7010 265° West 401 461 26,000  Level FlightAware
10:19PM 42.1830 -74.7450 253° West 408 470 26,000 -1,500 Level FlightAware
10:20PM 42.1380 -74.8410 238° Southwest 418 481 24,600 -1,980 Descending FlightAware
10:20PM 42.1240 -74.8650 232° Southwest 410 472 24,200 -2,280 Descending FlightAware
10:21PM 42.0500 -74.9880 231° Southwest 411 473 21,900 -2,400 Descending FlightAware
10:22PM 42.0050 -75.0630 231° Southwest 403 464 20,400 -2,280 Descending FlightAware
10:22PM 41.9620 -75.1270 228° Southwest 397 457 19,200 -1,140 Descending FlightAware
10:23PM 41.9000 -75.1840 214° Southwest 396 456 19,000 -900 Descending FlightAware
10:24PM 41.8370 -75.2350 211° Southwest 384 442 18,000 -1,620 Descending FlightAware
10:24PM 41.7710 -75.2890 211° Southwest 376 433 16,800 -1,080 Descending FlightAware
10:25PM 41.7160 -75.3320 210° Southwest 377 434 16,500 -240 Descending FlightAware
10:26PM 41.6710 -75.3690 212° Southwest 377 434 16,500  Level FlightAware
10:26PM 41.6100 -75.4180 211° Southwest 377 434 16,500  Level FlightAware
10:27PM 41.5640 -75.4550 211° Southwest 377 434 16,500  Level FlightAware
10:28PM 41.5030 -75.5040 211° Southwest 377 434 16,500  Level FlightAware
10:28PM 41.4570 -75.5410 211° Southwest 377 434 16,500 -2,940 Level FlightAware
10:29PM 41.3400 -75.6350 211° Southwest 350 403 12,100 -2,520 Descending FlightAware
10:31PM 41.1880 -75.6880 195° South 344 396 10,100 -900 Descending FlightAware
10:32PM 41.1220 -75.6870 179° South 348 400 10,100  Level FlightAware
10:33PM 41.0330 -75.6860 180° South 335 386 10,100  Level FlightAware
10:33PM 40.9570 -75.6860 180° South 338 389 10,100  Level FlightAware
10:34PM 40.9368 -75.6861 180° South 345 397 10,100  Level FlightAware ADS-B
10:34PM 40.8864 -75.6857 180° South 343 395 10,100  Level FlightAware ADS-B
10:35PM 40.8319 -75.6854 180° South 341 392 10,100  Level FlightAware ADS-B
10:35PM 40.7794 -75.6848 180° South 343 395 10,100  Level FlightAware ADS-B
10:36PM 40.7292 -75.6842 179° South 343 395 10,100  Level FlightAware ADS-B
10:36PM 40.6803 -75.6836 179° South 338 389 10,100  Level FlightAware ADS-B
10:37PM 40.6326 -75.6832 180° South 344 396 10,100  Level FlightAware ADS-B
10:37PM 40.6173 -75.6828 179° South 343 395 10,100  Level FlightAware ADS-B
10:37PM 40.5999 -75.6789 170° South 342 394 10,100  Level FlightAware ADS-B
10:37PM 40.5852 -75.6710 158° South 343 395 10,100  Level FlightAware ADS-B
10:37PM 40.5789 -75.6660 149° Southeast 345 397 10,100  Level FlightAware ADS-B
10:37PM 40.5686 -75.6545 140° Southeast 350 403 10,100  Level FlightAware ADS-B
10:38PM 40.5626 -75.6454 131° Southeast 353 406 10,100  Level FlightAware ADS-B
10:38PM 40.5540 -75.6296 126° Southeast 355 409 10,100  Level FlightAware ADS-B
10:38PM 40.5238 -75.5705 124° Southeast 327 376 10,100  Level FlightAware ADS-B
10:39PM 40.4996 -75.5236 124° Southeast 303 349 10,100  Level FlightAware ADS-B
10:39PM 40.4754 -75.4776 125° Southeast 303 349 10,100  Level FlightAware ADS-B
10:40PM 40.4516 -75.4322 125° Southeast 303 349 10,100  Level FlightAware ADS-B
10:40PM 40.4274 -75.3870 125° Southeast 299 344 10,100 -120 Level FlightAware ADS-B
10:41PM 40.4018 -75.3422 127° Southeast 297 342 10,000 -420 Descending FlightAware ADS-B
10:41PM 40.3885 -75.3185 126° Southeast 297 342 9,800 -1,020 Descending FlightAware ADS-B
10:41PM 40.3815 -75.3066 128° Southeast 294 338 9,600 -1,500 Descending FlightAware ADS-B
10:41PM 40.3777 -75.3015 134° Southeast 292 336 9,500 -1,500 Descending FlightAware ADS-B
10:41PM 40.3737 -75.2974 142° Southeast 290 334 9,400 -1,500 Descending FlightAware ADS-B
10:41PM 40.3695 -75.2937 146° Southeast 287 330 9,300 -2,280 Descending FlightAware ADS-B
10:41PM 40.3653 -75.2909 153° Southeast 285 328 9,100 -1,740 Descending FlightAware ADS-B
10:42PM 40.3607 -75.2885 158° South 283 326 9,100 -1,380 Level FlightAware ADS-B
10:42PM 40.3430 -75.2813 163° South 281 323 8,700 -1,800 Descending FlightAware ADS-B
10:42PM 40.3239 -75.2746 165° South 281 323 8,200 -1,680 Descending FlightAware ADS-B
10:42PM 40.3108 -75.2701 165° South 281 323 8,000 -1,440 Descending FlightAware ADS-B
10:42PM 40.2905 -75.2632 165° South 280 322 7,600 -1,560 Descending FlightAware ADS-B
10:43PM 40.2717 -75.2569 166° South 276 318 7,200 -1,380 Descending FlightAware ADS-B
10:43PM 40.2530 -75.2504 165° South 275 316 6,900 -1,560 Descending FlightAware ADS-B
10:43PM 40.2341 -75.2441 166° South 274 315 6,400 -1,800 Descending FlightAware ADS-B
10:43PM 40.2191 -75.2391 166° South 275 316 6,100 -1,500 Descending FlightAware ADS-B
10:44PM 40.1993 -75.2328 166° South 275 316 5,700 -1,500 Descending FlightAware ADS-B
10:44PM 40.1803 -75.2268 166° South 276 318 5,300 -1,740 Descending FlightAware ADS-B
10:44PM 40.1644 -75.2218 166° South 275 316 4,900 -1,560 Descending FlightAware ADS-B
10:44PM 40.1472 -75.2162 166° South 275 316 4,600 -1,200 Descending FlightAware ADS-B
10:44PM 40.1402 -75.2134 163° South 275 316 4,500 -1,380 Descending FlightAware ADS-B
10:45PM 40.1362 -75.2112 157° South 275 316 4,400 -1,740 Descending FlightAware ADS-B
10:45PM 40.1321 -75.2083 152° Southeast 275 316 4,300 -1,500 Descending FlightAware ADS-B
10:45PM 40.1277 -75.2043 145° Southeast 276 318 4,200 -1,320 Descending FlightAware ADS-B
10:45PM 40.1187 -75.1941 139° Southeast 275 316 4,000 -1,500 Descending FlightAware ADS-B
10:45PM 40.1046 -75.1767 137° Southeast 274 315 3,600 -1,620 Descending FlightAware ADS-B
10:45PM 40.0904 -75.1593 137° Southeast 273 314 3,200 -1,020 Descending FlightAware ADS-B
10:46PM 40.0766 -75.1422 137° Southeast 272 313 3,100 -240 Descending FlightAware ADS-B
10:46PM 40.0622 -75.1241 136° Southeast 271 312 3,100  Level FlightAware ADS-B
10:46PM 40.0481 -75.1063 136° Southeast 269 310 3,100  Level FlightAware ADS-B
10:46PM 40.0341 -75.0889 136° Southeast 269 310 3,100  Level FlightAware ADS-B
10:47PM 40.0199 -75.0712 136° Southeast 269 310 3,100  Level FlightAware ADS-B
10:47PM 40.0048 -75.0522 136° Southeast 257 296 3,100  Level FlightAware ADS-B
10:47PM 39.9857 -75.0287 137° Southeast 238 274 3,100  Level FlightAware ADS-B
10:47PM 39.9788 -75.0218 143° Southeast 239 275 3,100  Level FlightAware ADS-B
10:48PM 39.9637 -75.0112 152° Southeast 237 273 3,100  Level FlightAware ADS-B
10:48PM 39.9577 -75.0085 161° South 231 266 3,100  Level FlightAware ADS-B
10:48PM 39.9467 -75.0042 163° South 217 250 3,100  Level FlightAware ADS-B
10:48PM 39.9417 -75.0026 166° South 210 242 3,100  Level FlightAware ADS-B
10:48PM 39.9385 -75.0020 172° South 205 236 3,100  Level FlightAware ADS-B
10:48PM 39.9288 -75.0039 189° South 186 214 3,100  Level FlightAware ADS-B
10:48PM 39.9264 -75.0052 203° Southwest 183 211 3,100  Level FlightAware ADS-B
10:48PM 39.9225 -75.0086 214° Southwest 179 206 3,100  Level FlightAware ADS-B
10:48PM 39.9207 -75.0108 223° Southwest 177 204 3,100  Level FlightAware ADS-B
10:49PM 39.9192 -75.0133 232° Southwest 175 201 3,100  Level FlightAware ADS-B
10:49PM 39.9173 -75.0175 239° Southwest 173 199 3,100  Level FlightAware ADS-B
10:49PM 39.9154 -75.0226 244° Southwest 173 199 3,100 -720 Level FlightAware ADS-B
10:49PM 39.9109 -75.0428 254° West 169 194 2,800 -900 Descending FlightAware ADS-B
10:49PM 39.9098 -75.0490 257° West 158 182 2,700 -720 Descending FlightAware ADS-B
10:49PM 39.9092 -75.0518 254° West 157 181 2,700 -720 Level FlightAware ADS-B
10:49PM 39.9064 -75.0656 255° West 155 178 2,500 -780 Descending FlightAware ADS-B
10:50PM 39.9036 -75.0798 256° West 154 177 2,300 -840 Descending FlightAware ADS-B
10:50PM 39.9011 -75.0923 255° West 155 178 2,100 -840 Descending FlightAware ADS-B
10:50PM 39.8984 -75.1060 256° West 155 178 1,900 -900 Descending FlightAware ADS-B
10:50PM 39.8964 -75.1162 256° West 155 178 1,700 -900 Descending FlightAware ADS-B
10:51PM 39.8936 -75.1301 255° West 151 174 1,500 -780 Descending FlightAware ADS-B
10:51PM 39.8910 -75.1437 256° West 134 154 1,300 -720 Descending FlightAware ADS-B
10:51PM 39.8895 -75.1512 255° West 127 146 1,200 -480 Descending FlightAware ADS-B
10:51PM 39.8873 -75.1621 255° West 123 142 1,100 -600 Descending FlightAware ADS-B
10:51PM 39.8864 -75.1665 255° West 123 142 1,000 -840 Descending FlightAware ADS-B
10:52PM 39.8842 -75.1776 256° West 122 140 800 -600 Descending FlightAware ADS-B
10:52PM 39.8821 -75.1885 256° West 122 140 700 -600 Descending FlightAware ADS-B
10:52PM 39.8799 -75.1994 255° West 121 139 500 -780 Descending FlightAware ADS-B
11:01PM 39.8667 -75.2333 254° West  Level FlightAware Approximate